createdAt,value
2016-06-03T00:00:01.544Z,47.14
2016-06-03T00:01:01.578Z,47.44
2016-06-03T00:02:01.612Z,47.34
2016-06-03T00:03:01.630Z,47.24
2016-06-03T00:04:01.664Z,47.24
2016-06-03T00:05:01.681Z,47.14
2016-06-03T00:06:01.716Z,47.34
2016-06-03T00:07:01.750Z,47.44
2016-06-03T00:08:01.768Z,47.53
2016-06-03T00:09:01.802Z,47.72
2016-06-03T00:10:01.836Z,47.44
2016-06-03T00:11:01.854Z,47.34
2016-06-03T00:12:01.873Z,47.05
2016-06-03T00:13:01.922Z,47.34
2016-06-03T00:14:01.925Z,47.34
2016-06-03T00:15:01.959Z,47.53
2016-06-03T00:16:01.993Z,47.53
2016-06-03T00:17:02.027Z,47.63
2016-06-03T00:18:02.045Z,47.63
2016-06-03T00:19:02.080Z,47.51
2016-06-03T00:20:02.114Z,47.34
2016-06-03T00:21:02.131Z,47.82
2016-06-03T00:22:02.166Z,47.41
2016-06-03T00:23:02.183Z,47.92
2016-06-03T00:24:02.218Z,47.92
2016-06-03T00:25:02.126Z,47.8
2016-06-03T00:26:02.270Z,47.92
2016-06-03T00:27:02.288Z,47.72
2016-06-03T00:28:02.321Z,47.8
2016-06-03T00:29:02.357Z,47.31
2016-06-03T00:30:02.390Z,47.89
2016-06-03T00:31:03.579Z,47.89
2016-06-03T00:32:02.427Z,47.8
2016-06-03T00:33:02.460Z,47.8
2016-06-03T00:34:02.479Z,48.18
2016-06-03T00:35:02.512Z,48.18
2016-06-03T00:36:02.547Z,48.28
2016-06-03T00:37:02.581Z,48.08
2016-06-03T00:38:02.598Z,48.47
2016-06-03T00:39:02.633Z,48.28
2016-06-03T00:40:02.933Z,48.38
2016-06-03T00:41:02.686Z,48.28
2016-06-03T00:42:02.907Z,48.28
2016-06-03T00:43:02.737Z,48.28
2016-06-03T00:44:02.755Z,48.18
2016-06-03T00:45:02.805Z,48.76
2016-06-03T00:46:02.824Z,48.66
2016-06-03T00:47:02.857Z,48.66
2016-06-03T00:48:02.876Z,48.76
2016-06-03T00:49:02.910Z,48.08
2016-06-03T00:50:02.928Z,48.66
2016-06-03T00:51:02.977Z,48.57
2016-06-03T00:52:02.980Z,48.08
2016-06-03T00:53:03.014Z,48.47
2016-06-03T00:54:03.032Z,48.57
2016-06-03T00:55:03.129Z,48.47
2016-06-03T00:56:03.101Z,48.47
2016-06-03T00:57:03.119Z,48.38
2016-06-03T00:58:03.153Z,48.38
2016-06-03T00:59:03.171Z,48.66
2016-06-03T01:00:03.204Z,48.66
2016-06-03T01:01:03.223Z,48.57
2016-06-03T01:02:03.257Z,48.38
2016-06-03T01:03:03.291Z,48.38
2016-06-03T01:04:03.309Z,48.57
2016-06-03T01:05:03.343Z,48.38
2016-06-03T01:06:03.362Z,48.28
2016-06-03T01:07:03.396Z,48.47
2016-06-03T01:08:03.430Z,48.66
2016-06-03T01:09:03.448Z,48.86
2016-06-03T01:10:03.482Z,48.57
2016-06-03T01:11:03.500Z,48.57
2016-06-03T01:12:03.534Z,48.57
2016-06-03T01:13:03.552Z,48.95
2016-06-03T01:14:03.586Z,48.86
2016-06-03T01:15:03.620Z,48.83
2016-06-03T01:16:03.639Z,49.05
2016-06-03T01:17:03.672Z,49.05
2016-06-03T01:18:03.691Z,49.02
2016-06-03T01:19:03.725Z,49.41
2016-06-03T01:20:03.758Z,48.76
2016-06-03T01:21:03.793Z,48.83
2016-06-03T01:22:03.811Z,49.22
2016-06-03T01:23:03.830Z,49.22
2016-06-03T01:24:03.863Z,49.12
2016-06-03T01:25:03.897Z,49.79
2016-06-03T01:26:03.916Z,49.63
2016-06-03T01:27:03.949Z,49.05
2016-06-03T01:28:03.983Z,49.41
2016-06-03T01:29:04.001Z,49.51
2016-06-03T01:30:04.035Z,49.34
2016-06-03T01:31:04.054Z,49.6
2016-06-03T01:32:04.088Z,49.6
2016-06-03T01:33:04.121Z,49.32
2016-06-03T01:34:04.140Z,49.41
2016-06-03T01:35:04.159Z,49.6
2016-06-03T01:36:04.192Z,49.6
2016-06-03T01:37:04.211Z,49.6
2016-06-03T01:38:04.245Z,49.6
2016-06-03T01:39:04.262Z,49.7
2016-06-03T01:40:04.360Z,49.32
2016-06-03T01:41:04.331Z,49.6
2016-06-03T01:42:04.364Z,49.32
2016-06-03T01:43:04.383Z,49.79
2016-06-03T01:44:04.401Z,49.6
2016-06-03T01:45:04.436Z,49.41
2016-06-03T01:46:04.453Z,49.51
2016-06-03T01:47:04.488Z,49.6
2016-06-03T01:48:04.522Z,49.6
2016-06-03T01:49:04.555Z,49.51
2016-06-03T01:50:04.574Z,49.51
2016-06-03T01:51:04.592Z,49.51
2016-06-03T01:52:04.627Z,49.51
2016-06-03T01:53:04.661Z,49.41
2016-06-03T01:54:04.677Z,49.89
2016-06-03T01:55:04.712Z,49.6
2016-06-03T01:56:04.746Z,49.79
2016-06-03T01:57:04.765Z,49.6
2016-06-03T01:58:04.782Z,49.6
2016-06-03T01:59:04.816Z,49.7
2016-06-03T02:00:04.851Z,49.6
2016-06-03T02:01:04.885Z,49.79
2016-06-03T02:02:04.903Z,50.09
2016-06-03T02:03:04.938Z,49.7
2016-06-03T02:04:04.971Z,49.79
2016-06-03T02:05:04.989Z,49.89
2016-06-03T02:06:05.007Z,49.89
2016-06-03T02:07:05.026Z,50.18
2016-06-03T02:08:05.059Z,49.99
2016-06-03T02:09:05.094Z,49.79
2016-06-03T02:10:05.346Z,49.99
2016-06-03T02:11:05.146Z,49.89
2016-06-03T02:12:05.164Z,49.99
2016-06-03T02:13:05.214Z,49.99
2016-06-03T02:14:05.217Z,49.99
2016-06-03T02:15:05.251Z,49.99
2016-06-03T02:16:05.269Z,50.18
2016-06-03T02:17:05.303Z,49.99
2016-06-03T02:18:05.321Z,49.99
2016-06-03T02:19:05.355Z,50.09
2016-06-03T02:20:05.389Z,50.37
2016-06-03T02:21:05.407Z,49.99
2016-06-03T02:22:05.457Z,50.27
2016-06-03T02:23:05.460Z,50.57
2016-06-03T02:24:05.493Z,50.37
2016-06-03T02:25:06.105Z,50.18
2016-06-03T02:26:05.546Z,50.47
2016-06-03T02:27:05.579Z,50.15
2016-06-03T02:28:05.598Z,50.27
2016-06-03T02:29:05.616Z,50.25
2016-06-03T02:30:05.650Z,50.27
2016-06-03T02:31:05.685Z,50.06
2016-06-03T02:32:05.702Z,50.18
2016-06-03T02:33:05.737Z,50.25
2016-06-03T02:34:05.755Z,50.73
2016-06-03T02:35:05.789Z,50.45
2016-06-03T02:36:05.807Z,50.83
2016-06-03T02:37:05.841Z,50.45
2016-06-03T02:38:05.859Z,50.63
2016-06-03T02:39:05.893Z,50.45
2016-06-03T02:40:06.302Z,50.73
2016-06-03T02:41:05.945Z,50.63
2016-06-03T02:42:05.979Z,50.73
2016-06-03T02:43:05.998Z,50.83
2016-06-03T02:44:06.031Z,50.73
2016-06-03T02:45:06.081Z,50.63
2016-06-03T02:46:06.084Z,50.63
2016-06-03T02:47:06.118Z,50.63
2016-06-03T02:48:06.136Z,50.73
2016-06-03T02:49:06.169Z,50.73
2016-06-03T02:50:06.188Z,50.25
2016-06-03T02:51:06.238Z,50.73
2016-06-03T02:52:06.241Z,50.73
2016-06-03T02:53:06.274Z,51.02
2016-06-03T02:54:06.293Z,51.12
2016-06-03T02:55:06.764Z,51.12
2016-06-03T02:56:06.345Z,51.31
2016-06-03T02:57:06.379Z,50.73
2016-06-03T02:58:06.397Z,51.41
2016-06-03T02:59:06.432Z,51.21
2016-06-03T03:00:06.466Z,51.12
2016-06-03T03:01:06.483Z,51.21
2016-06-03T03:02:06.518Z,51.41
2016-06-03T03:03:06.535Z,51.41
2016-06-03T03:04:06.570Z,51.6
2016-06-03T03:05:06.588Z,51.5
2016-06-03T03:06:06.621Z,51.6
2016-06-03T03:07:06.641Z,51.5
2016-06-03T03:08:06.674Z,51.5
2016-06-03T03:09:06.708Z,51.6
2016-06-03T03:10:06.742Z,51.41
2016-06-03T03:11:06.760Z,51.5
2016-06-03T03:12:06.779Z,51.5
2016-06-03T03:13:06.813Z,51.5
2016-06-03T03:14:06.831Z,51.41
2016-06-03T03:15:06.865Z,51.6
2016-06-03T03:16:06.883Z,51.7
2016-06-03T03:17:06.917Z,51.6
2016-06-03T03:18:06.936Z,51.5
2016-06-03T03:19:06.969Z,51.6
2016-06-03T03:20:06.988Z,51.79
2016-06-03T03:21:07.021Z,51.7
2016-06-03T03:22:06.900Z,51.7
2016-06-03T03:23:07.075Z,51.5
2016-06-03T03:24:07.092Z,51.79
2016-06-03T03:25:07.173Z,51.79
2016-06-03T03:26:07.161Z,51.38
2016-06-03T03:27:07.178Z,51.41
2016-06-03T03:28:07.196Z,51.31
2016-06-03T03:29:07.230Z,51.79
2016-06-03T03:30:07.249Z,51.41
2016-06-03T03:31:07.282Z,51.7
2016-06-03T03:32:07.333Z,51.7
2016-06-03T03:33:07.335Z,51.5
2016-06-03T03:34:07.385Z,51.98
2016-06-03T03:35:07.403Z,51.6
2016-06-03T03:36:07.422Z,51.96
2016-06-03T03:37:07.439Z,51.98
2016-06-03T03:38:07.473Z,52.18
2016-06-03T03:39:07.492Z,52.18
2016-06-03T03:40:07.526Z,51.79
2016-06-03T03:41:07.560Z,51.86
2016-06-03T03:42:07.578Z,51.7
2016-06-03T03:43:07.612Z,52.08
2016-06-03T03:44:07.630Z,52.27
2016-06-03T03:45:07.665Z,52.08
2016-06-03T03:46:07.698Z,52.44
2016-06-03T03:47:07.717Z,52.34
2016-06-03T03:48:07.734Z,52.37
2016-06-03T03:49:07.894Z,52.37
2016-06-03T03:50:07.803Z,52.27
2016-06-03T03:51:07.822Z,52.37
2016-06-03T03:52:07.840Z,52.27
2016-06-03T03:53:07.873Z,52.34
2016-06-03T03:54:07.892Z,52.37
2016-06-03T03:55:07.925Z,52.25
2016-06-03T03:56:07.944Z,52.18
2016-06-03T03:57:07.993Z,52.34
2016-06-03T03:58:08.012Z,52.34
2016-06-03T03:59:08.030Z,52.25
2016-06-03T04:00:08.221Z,52.27
2016-06-03T04:01:08.083Z,52.25
2016-06-03T04:02:08.117Z,52.34
2016-06-03T04:03:08.135Z,52.34
2016-06-03T04:04:08.168Z,52.34
2016-06-03T04:05:08.202Z,52.34
2016-06-03T04:06:08.221Z,52.34
2016-06-03T04:07:08.254Z,52.34
2016-06-03T04:08:08.336Z,52.25
2016-06-03T04:09:08.291Z,52.25
2016-06-03T04:10:08.622Z,52.34
2016-06-03T04:11:08.359Z,52.34
2016-06-03T04:12:08.378Z,52.34
2016-06-03T04:13:08.396Z,52.25
2016-06-03T04:14:08.430Z,52.15
2016-06-03T04:15:08.448Z,52.25
2016-06-03T04:16:08.481Z,52.54
2016-06-03T04:17:08.516Z,52.54
2016-06-03T04:18:08.534Z,52.63
2016-06-03T04:19:08.568Z,52.73
2016-06-03T04:20:08.587Z,52.44
2016-06-03T04:21:08.683Z,52.63
2016-06-03T04:22:08.639Z,52.54
2016-06-03T04:23:08.658Z,52.63
2016-06-03T04:24:08.707Z,52.83
2016-06-03T04:25:08.819Z,52.83
2016-06-03T04:26:08.744Z,52.83
2016-06-03T04:27:08.761Z,52.83
2016-06-03T04:28:08.796Z,52.92
2016-06-03T04:29:08.845Z,52.92
2016-06-03T04:30:08.708Z,52.54
2016-06-03T04:31:08.975Z,52.73
2016-06-03T04:32:08.900Z,52.92
2016-06-03T04:33:08.935Z,52.83
2016-06-03T04:34:08.953Z,52.83
2016-06-03T04:35:09.018Z,52.92
2016-06-03T04:36:09.005Z,52.92
2016-06-03T04:37:09.038Z,52.83
2016-06-03T04:38:09.057Z,52.92
2016-06-03T04:39:09.090Z,52.63
2016-06-03T04:40:09.125Z,52.92
2016-06-03T04:41:09.143Z,52.92
2016-06-03T04:42:09.193Z,52.92
2016-06-03T04:43:09.195Z,52.92
2016-06-03T04:44:09.214Z,52.83
2016-06-03T04:45:09.248Z,52.73
2016-06-03T04:46:09.281Z,52.83
2016-06-03T04:47:09.301Z,52.92
2016-06-03T04:48:09.318Z,52.83
2016-06-03T04:49:09.352Z,52.83
2016-06-03T04:50:09.230Z,52.83
2016-06-03T04:51:09.404Z,52.73
2016-06-03T04:52:09.439Z,52.92
2016-06-03T04:53:09.472Z,52.83
2016-06-03T04:54:09.491Z,53.02
2016-06-03T04:55:09.556Z,52.92
2016-06-03T04:56:09.543Z,52.92
2016-06-03T04:57:09.561Z,52.83
2016-06-03T04:58:09.595Z,53.02
2016-06-03T04:59:09.614Z,53.4
2016-06-03T05:00:09.663Z,53.21
2016-06-03T05:01:09.665Z,53.31
2016-06-03T05:02:09.700Z,53.21
2016-06-03T05:03:09.733Z,53.11
2016-06-03T05:04:09.752Z,53.05
2016-06-03T05:05:09.770Z,53.23
2016-06-03T05:06:09.804Z,53.23
2016-06-03T05:07:09.838Z,53.14
2016-06-03T05:08:09.872Z,53.23
2016-06-03T05:09:09.890Z,53.33
2016-06-03T05:10:09.909Z,53.33
2016-06-03T05:11:09.943Z,53.02
2016-06-03T05:12:09.961Z,53.14
2016-06-03T05:13:09.995Z,53.21
2016-06-03T05:14:10.013Z,53.21
2016-06-03T05:15:10.063Z,53.43
2016-06-03T05:16:10.065Z,53.43
2016-06-03T05:17:10.098Z,53.43
2016-06-03T05:18:10.133Z,53.23
2016-06-03T05:19:10.151Z,53.23
2016-06-03T05:20:10.170Z,53.14
2016-06-03T05:21:10.203Z,53.14
2016-06-03T05:22:10.237Z,52.85
2016-06-03T05:23:10.256Z,53.05
2016-06-03T05:24:13.290Z,53.33
2016-06-03T05:25:10.433Z,53.14
2016-06-03T05:26:10.342Z,53.05
2016-06-03T05:27:10.361Z,53.05
2016-06-03T05:28:10.379Z,53.53
2016-06-03T05:29:10.413Z,53.53
2016-06-03T05:30:10.447Z,53.33
2016-06-03T05:31:10.466Z,53.23
2016-06-03T05:32:10.500Z,53.14
2016-06-03T05:33:10.516Z,53.23
2016-06-03T05:34:10.551Z,53.65
2016-06-03T05:35:10.616Z,53.72
2016-06-03T05:36:10.604Z,53.36
2016-06-03T05:37:10.621Z,53.55
2016-06-03T05:38:10.640Z,53.84
2016-06-03T05:39:10.674Z,53.72
2016-06-03T05:40:10.896Z,53.17
2016-06-03T05:41:10.726Z,53.55
2016-06-03T05:42:10.760Z,53.55
2016-06-03T05:43:10.794Z,53.45
2016-06-03T05:44:10.813Z,53.07
2016-06-03T05:45:10.846Z,53.07
2016-06-03T05:46:10.865Z,53.36
2016-06-03T05:47:10.899Z,53.36
2016-06-03T05:48:10.918Z,54.22
2016-06-03T05:49:10.967Z,53.36
2016-06-03T05:50:10.970Z,53.45
2016-06-03T05:51:10.988Z,53.74
2016-06-03T05:52:11.022Z,53.94
2016-06-03T05:53:11.039Z,53.84
2016-06-03T05:54:11.073Z,53.84
2016-06-03T05:55:11.108Z,53.84
2016-06-03T05:56:11.125Z,53.07
2016-06-03T05:57:11.160Z,53.84
2016-06-03T05:58:11.178Z,53.45
2016-06-03T05:59:11.228Z,53.94
2016-06-03T06:00:11.246Z,53.84
2016-06-03T06:01:11.327Z,53.94
2016-06-03T06:02:11.299Z,53.94
2016-06-03T06:03:11.317Z,54.25
2016-06-03T06:04:11.335Z,54.25
2016-06-03T06:05:11.369Z,54.13
2016-06-03T06:06:11.403Z,54.35
2016-06-03T06:07:11.422Z,54.54
2016-06-03T06:08:11.299Z,53.96
2016-06-03T06:09:11.474Z,54.74
2016-06-03T06:10:11.679Z,53.87
2016-06-03T06:11:11.527Z,54.93
2016-06-03T06:12:11.403Z,54.83
2016-06-03T06:13:11.593Z,54.44
2016-06-03T06:14:11.612Z,54.25
2016-06-03T06:15:11.646Z,54.35
2016-06-03T06:16:11.507Z,54.25
2016-06-03T06:17:11.714Z,54.93
2016-06-03T06:18:11.717Z,55.12
2016-06-03T06:19:11.751Z,54.54
2016-06-03T06:20:11.768Z,54.96
2016-06-03T06:21:11.818Z,54.86
2016-06-03T06:22:11.837Z,54.66
2016-06-03T06:23:11.856Z,54.57
2016-06-03T06:24:11.889Z,55.15
2016-06-03T06:25:11.907Z,54.57
2016-06-03T06:26:11.942Z,55.15
2016-06-03T06:27:11.992Z,54.66
2016-06-03T06:28:12.008Z,54.28
2016-06-03T06:29:12.011Z,54.28
2016-06-03T06:30:12.155Z,53.7
2016-06-03T06:31:12.080Z,54.18
2016-06-03T06:32:12.097Z,53.8
2016-06-03T06:33:12.116Z,53.8
2016-06-03T06:34:12.150Z,54.11
2016-06-03T06:35:12.028Z,53.92
2016-06-03T06:36:12.311Z,53.92
2016-06-03T06:37:12.330Z,53.05
2016-06-03T06:38:12.364Z,53.63
2016-06-03T06:39:12.366Z,53.63
2016-06-03T06:40:12.511Z,53.25
2016-06-03T06:41:12.372Z,53.44
2016-06-03T06:42:12.390Z,53.15
2016-06-03T06:43:12.393Z,53.05
2016-06-03T06:44:12.427Z,52.95
2016-06-03T06:45:12.445Z,52.86
2016-06-03T06:46:12.479Z,52.95
2016-06-03T06:47:12.537Z,53.05
2016-06-03T06:48:12.599Z,52.86
2016-06-03T06:49:12.644Z,52.86
2016-06-03T06:50:12.752Z,52.86
2016-06-03T06:51:12.751Z,53.34
2016-06-03T06:52:12.782Z,52.98
2016-06-03T06:53:12.825Z,52.98
2016-06-03T06:54:12.853Z,53.27
2016-06-03T06:55:12.929Z,53.56
2016-06-03T06:56:13.020Z,53.47
2016-06-03T06:57:13.073Z,53.47
2016-06-03T06:58:13.032Z,53.27
2016-06-03T06:59:13.023Z,53.37
2016-06-03T07:00:13.061Z,53.56
2016-06-03T07:01:13.098Z,53.37
2016-06-03T07:02:13.133Z,53.95
2016-06-03T07:03:13.153Z,53.88
2016-06-03T07:04:13.187Z,53.47
2016-06-03T07:05:13.207Z,53.49
2016-06-03T07:06:13.242Z,53.69
2016-06-03T07:07:13.339Z,53.69
2016-06-03T07:08:13.343Z,53.69
2016-06-03T07:09:13.347Z,54.07
2016-06-03T07:10:13.506Z,53.97
2016-06-03T07:11:13.526Z,53.97
2016-06-03T07:12:13.403Z,53.49
2016-06-03T07:13:13.437Z,53.81
2016-06-03T07:14:13.456Z,54.1
2016-06-03T07:15:13.489Z,54.19
2016-06-03T07:16:13.523Z,53.52
2016-06-03T07:17:13.541Z,53.61
2016-06-03T07:18:13.575Z,53.52
2016-06-03T07:19:13.609Z,53.42
2016-06-03T07:20:13.627Z,53.13
2016-06-03T07:21:13.661Z,53.16
2016-06-03T07:22:13.680Z,52.97
2016-06-03T07:23:13.714Z,52.48
2016-06-03T07:24:13.732Z,52.48
2016-06-03T07:25:13.767Z,52.77
2016-06-03T07:26:13.800Z,52.77
2016-06-03T07:27:13.819Z,52.99
2016-06-03T07:28:13.868Z,52.77
2016-06-03T07:29:13.871Z,52.02
2016-06-03T07:30:13.905Z,52.22
2016-06-03T07:31:13.939Z,52.22
2016-06-03T07:32:13.972Z,52.12
2016-06-03T07:33:13.991Z,51.64
2016-06-03T07:34:14.024Z,51.44
2016-06-03T07:35:14.058Z,51.76
2016-06-03T07:36:14.077Z,51.18
2016-06-03T07:37:14.111Z,51.18
2016-06-03T07:38:14.129Z,51.08
2016-06-03T07:39:14.163Z,50.4
2016-06-03T07:40:14.338Z,50.5
2016-06-03T07:41:14.216Z,50.6
2016-06-03T07:42:14.296Z,50.4
2016-06-03T07:43:14.298Z,50.21
2016-06-03T07:44:14.317Z,50.98
2016-06-03T07:45:14.445Z,50.21
2016-06-03T07:46:14.463Z,49.82
2016-06-03T07:47:14.497Z,49.95
2016-06-03T07:48:14.500Z,49.85
2016-06-03T07:49:14.503Z,49.34
2016-06-03T07:50:14.520Z,49.27
2016-06-03T07:51:14.523Z,49.17
2016-06-03T07:52:14.542Z,48.88
2016-06-03T07:53:14.638Z,48.88
2016-06-03T07:54:14.547Z,48.79
2016-06-03T07:55:15.862Z,49
2016-06-03T07:56:14.647Z,48.9
2016-06-03T07:57:14.680Z,49
2016-06-03T07:58:14.714Z,48.61
2016-06-03T07:59:14.732Z,48.32
2016-06-03T08:00:14.766Z,48.32
2016-06-03T08:01:14.800Z,48.9
2016-06-03T08:02:14.818Z,48.54
2016-06-03T08:03:14.853Z,48.52
2016-06-03T08:04:14.886Z,48.71
2016-06-03T08:05:14.999Z,48.35
2016-06-03T08:06:15.001Z,48.13
2016-06-03T08:07:14.348Z,47.86
2016-06-03T08:08:15.163Z,47.67
2016-06-03T08:09:15.165Z,47.77
2016-06-03T08:10:15.340Z,47.96
2016-06-03T08:11:15.171Z,47.86
2016-06-03T08:12:15.190Z,48.06
2016-06-03T08:13:15.332Z,47.38
2016-06-03T08:14:15.335Z,47.19
2016-06-03T08:15:15.338Z,47.5
2016-06-03T08:16:15.340Z,47.67
2016-06-03T08:17:15.359Z,47.4
2016-06-03T08:18:15.362Z,47.2
2016-06-03T08:19:15.380Z,47.4
2016-06-03T08:20:15.445Z,47.4
2016-06-03T08:21:15.386Z,46.92
2016-06-03T08:22:15.403Z,46.82
2016-06-03T08:23:15.437Z,46.92
2016-06-03T08:24:15.472Z,46.82
2016-06-03T08:25:15.506Z,46.62
2016-06-03T08:26:15.524Z,46.33
2016-06-03T08:27:15.558Z,46.33
2016-06-03T08:28:15.608Z,46.24
2016-06-03T08:29:15.610Z,46.04
2016-06-03T08:30:15.644Z,45.85
2016-06-03T08:31:15.678Z,45.78
2016-06-03T08:32:15.711Z,45.68
2016-06-03T08:33:15.730Z,45.29
2016-06-03T08:34:15.763Z,45.48
2016-06-03T08:35:15.642Z,45.29
2016-06-03T08:36:15.832Z,45.2
2016-06-03T08:37:15.850Z,44.83
2016-06-03T08:38:15.885Z,44.71
2016-06-03T08:39:15.918Z,44.92
2016-06-03T08:40:15.796Z,44.44
2016-06-03T08:41:15.970Z,44.54
2016-06-03T08:42:16.004Z,44.05
2016-06-03T08:43:16.038Z,44.05
2016-06-03T08:44:16.056Z,44.34
2016-06-03T08:45:16.091Z,44.05
2016-06-03T08:46:16.124Z,43.76
2016-06-03T08:47:16.158Z,43.76
2016-06-03T08:48:16.271Z,43.57
2016-06-03T08:49:16.320Z,44.24
2016-06-03T08:50:16.245Z,43.98
2016-06-03T08:51:16.310Z,43.59
2016-06-03T08:52:16.328Z,43.4
2016-06-03T08:53:16.392Z,43.01
2016-06-03T08:54:16.396Z,43.01
2016-06-03T08:55:16.398Z,43.01
2016-06-03T08:56:16.526Z,43.1
2016-06-03T08:57:16.529Z,43.1
2016-06-03T08:58:16.578Z,43.1
2016-06-03T08:59:16.425Z,43.1
2016-06-03T09:00:16.584Z,43.49
2016-06-03T09:01:16.586Z,43.4
2016-06-03T09:02:16.605Z,43.49
2016-06-03T09:03:16.655Z,43.4
2016-06-03T09:04:16.673Z,43.01
2016-06-03T09:05:16.708Z,42.91
2016-06-03T09:06:16.741Z,42.71
2016-06-03T09:07:16.759Z,42.91
2016-06-03T09:08:16.808Z,42.91
2016-06-03T09:09:16.827Z,42.91
2016-06-03T09:10:16.939Z,42.81
2016-06-03T09:11:16.941Z,42.91
2016-06-03T09:12:16.976Z,42.74
2016-06-03T09:13:17.151Z,42.64
2016-06-03T09:14:17.169Z,42.44
2016-06-03T09:15:17.171Z,42.71
2016-06-03T09:16:17.174Z,42.54
2016-06-03T09:17:17.193Z,42.35
2016-06-03T09:18:17.180Z,42.25
2016-06-03T09:19:17.229Z,42.25
2016-06-03T09:20:17.248Z,42.15
2016-06-03T09:21:17.250Z,42.15
2016-06-03T09:22:17.315Z,41.86
2016-06-03T09:23:17.318Z,41.57
2016-06-03T09:24:17.368Z,41.57
2016-06-03T09:25:18.214Z,41.67
2016-06-03T09:26:17.372Z,41.57
2016-06-03T09:27:17.376Z,41.57
2016-06-03T09:28:17.409Z,41.57
2016-06-03T09:29:17.443Z,41.47
2016-06-03T09:30:17.478Z,41.67
2016-06-03T09:31:17.527Z,41.57
2016-06-03T09:32:17.529Z,41.28
2016-06-03T09:33:17.579Z,41.28
2016-06-03T09:34:17.598Z,41.28
2016-06-03T09:35:17.631Z,41.2
2016-06-03T09:36:17.666Z,41.2
2016-06-03T09:37:17.699Z,41.28
2016-06-03T09:38:17.718Z,41.3
2016-06-03T09:39:17.752Z,41.39
2016-06-03T09:40:17.785Z,41.1
2016-06-03T09:41:17.819Z,40.91
2016-06-03T09:42:17.854Z,41.01
2016-06-03T09:43:17.872Z,40.91
2016-06-03T09:44:17.922Z,40.81
2016-06-03T09:45:17.940Z,40.91
2016-06-03T09:46:17.973Z,40.42
2016-06-03T09:47:18.008Z,40.52
2016-06-03T09:48:18.025Z,40.52
2016-06-03T09:49:18.076Z,40.91
2016-06-03T09:50:18.093Z,40.44
2016-06-03T09:51:18.128Z,40.25
2016-06-03T09:52:18.162Z,39.96
2016-06-03T09:53:18.195Z,40.34
2016-06-03T09:54:18.214Z,40.34
2016-06-03T09:55:18.264Z,40.15
2016-06-03T09:56:18.281Z,39.96
2016-06-03T09:57:18.315Z,39.96
2016-06-03T09:58:18.349Z,40.15
2016-06-03T09:59:18.383Z,40.06
2016-06-03T10:00:18.418Z,40.06
2016-06-03T10:01:18.451Z,39.76
2016-06-03T10:02:18.486Z,39.59
2016-06-03T10:03:18.519Z,39.49
2016-06-03T10:04:18.538Z,39.39
2016-06-03T10:05:18.586Z,39.2
2016-06-03T10:06:18.606Z,38.91
2016-06-03T10:07:18.639Z,39.1
2016-06-03T10:08:18.673Z,39
2016-06-03T10:09:18.692Z,38.81
2016-06-03T10:10:19.741Z,38.91
2016-06-03T10:11:18.760Z,38.54
2016-06-03T10:12:18.794Z,38.64
2016-06-03T10:13:18.827Z,38.64
2016-06-03T10:14:18.861Z,38.05
2016-06-03T10:15:18.895Z,37.85
2016-06-03T10:16:18.913Z,38.24
2016-06-03T10:17:18.948Z,38.34
2016-06-03T10:18:18.982Z,38.44
2016-06-03T10:19:19.015Z,38.24
2016-06-03T10:20:19.049Z,38.34
2016-06-03T10:21:19.084Z,38.24
2016-06-03T10:22:19.101Z,37.85
2016-06-03T10:23:19.135Z,37.85
2016-06-03T10:24:19.169Z,38.05
2016-06-03T10:25:19.203Z,37.66
2016-06-03T10:26:19.238Z,37.58
2016-06-03T10:27:19.271Z,37.58
2016-06-03T10:28:19.306Z,37.48
2016-06-03T10:29:19.339Z,37.48
2016-06-03T10:30:19.373Z,37.58
2016-06-03T10:31:19.392Z,36.9
2016-06-03T10:32:19.441Z,37.27
2016-06-03T10:33:19.459Z,37.39
2016-06-03T10:34:19.493Z,37.39
2016-06-03T10:35:19.386Z,36.98
2016-06-03T10:36:19.561Z,37.19
2016-06-03T10:37:19.594Z,37.19
2016-06-03T10:38:19.630Z,37.19
2016-06-03T10:39:19.663Z,37.19
2016-06-03T10:40:20.791Z,37.1
2016-06-03T10:41:19.730Z,37
2016-06-03T10:42:19.765Z,37
2016-06-03T10:43:19.783Z,37.1
2016-06-03T10:44:19.816Z,37
2016-06-03T10:45:19.851Z,36.9
2016-06-03T10:46:19.885Z,36.9
2016-06-03T10:47:19.919Z,36.71
2016-06-03T10:48:19.952Z,36.53
2016-06-03T10:49:19.987Z,36.82
2016-06-03T10:50:20.021Z,37.02
2016-06-03T10:51:20.055Z,36.82
2016-06-03T10:52:20.073Z,37.02
2016-06-03T10:53:20.106Z,36.92
2016-06-03T10:54:20.141Z,36.72
2016-06-03T10:55:20.784Z,36.55
2016-06-03T10:56:20.521Z,36.35
2016-06-03T10:57:20.259Z,36.06
2016-06-03T10:58:20.276Z,36.25
2016-06-03T10:59:20.154Z,35.96
2016-06-03T11:00:20.344Z,35.69
2016-06-03T11:01:20.378Z,35.67
2016-06-03T11:02:20.397Z,35.3
2016-06-03T11:03:20.447Z,35.49
2016-06-03T11:04:20.480Z,35
2016-06-03T11:05:20.498Z,34.81
2016-06-03T11:06:20.532Z,34.92
2016-06-03T11:07:20.582Z,34.73
2016-06-03T11:08:20.600Z,34.73
2016-06-03T11:09:20.650Z,34.24
2016-06-03T11:10:20.715Z,34.34
2016-06-03T11:11:20.702Z,34.53
2016-06-03T11:12:20.736Z,34.63
2016-06-03T11:13:20.769Z,34.34
2016-06-03T11:14:20.647Z,34.24
2016-06-03T11:15:20.837Z,34.34
2016-06-03T11:16:20.871Z,34.14
2016-06-03T11:17:20.905Z,34.14
2016-06-03T11:18:20.940Z,34.24
2016-06-03T11:19:20.974Z,34.34
2016-06-03T11:20:20.992Z,34.24
2016-06-03T11:21:21.041Z,33.95
2016-06-03T11:22:21.076Z,34.14
2016-06-03T11:23:21.109Z,33.97
2016-06-03T11:24:20.971Z,33.75
2016-06-03T11:25:21.176Z,33.97
2016-06-03T11:26:21.196Z,33.87
2016-06-03T11:27:21.230Z,33.48
2016-06-03T11:28:21.264Z,33.67
2016-06-03T11:29:21.298Z,33.38
2016-06-03T11:30:21.331Z,33.77
2016-06-03T11:31:21.381Z,33.67
2016-06-03T11:32:21.399Z,33.2
2016-06-03T11:33:21.433Z,32.71
2016-06-03T11:34:21.467Z,32.42
2016-06-03T11:35:21.501Z,31.54
2016-06-03T11:36:21.536Z,31.36
2016-06-03T11:37:21.569Z,30.58
2016-06-03T11:38:21.603Z,30.97
2016-06-03T11:39:21.637Z,30.48
2016-06-03T11:40:21.671Z,30.77
2016-06-03T11:41:21.705Z,30.48
2016-06-03T11:42:21.755Z,30.87
2016-06-03T11:43:21.772Z,30.79
2016-06-03T11:44:21.807Z,30.49
2016-06-03T11:45:21.840Z,30.4
2016-06-03T11:46:21.874Z,30.59
2016-06-03T11:47:21.908Z,30.2
2016-06-03T11:48:21.943Z,30
2016-06-03T11:49:21.961Z,30
2016-06-03T11:50:21.994Z,30
2016-06-03T11:51:22.044Z,30.3
2016-06-03T11:52:22.078Z,30.1
2016-06-03T11:53:22.112Z,30
2016-06-03T11:54:22.145Z,30
2016-06-03T11:55:22.179Z,30.1
2016-06-03T11:56:22.214Z,30.09
2016-06-03T11:57:22.248Z,30.09
2016-06-03T11:58:22.282Z,30.38
2016-06-03T11:59:22.315Z,30.58
2016-06-03T12:00:22.350Z,30.29
2016-06-03T12:01:22.384Z,30.38
2016-06-03T12:02:22.417Z,30.3
2016-06-03T12:03:22.436Z,30.1
2016-06-03T12:04:22.485Z,29.91
2016-06-03T12:05:22.520Z,29.91
2016-06-03T12:06:22.553Z,30.02
2016-06-03T12:07:22.586Z,29.53
2016-06-03T12:08:22.621Z,29.45
2016-06-03T12:09:22.655Z,29.35
2016-06-03T12:10:24.001Z,29.16
2016-06-03T12:11:23.098Z,29.55
2016-06-03T12:12:22.757Z,29.64
2016-06-03T12:13:22.791Z,29.55
2016-06-03T12:14:22.825Z,29.27
2016-06-03T12:15:22.858Z,29.17
2016-06-03T12:16:22.893Z,28.88
2016-06-03T12:17:22.941Z,28.99
2016-06-03T12:18:22.961Z,29.08
2016-06-03T12:19:22.994Z,28.89
2016-06-03T12:20:23.029Z,29.08
2016-06-03T12:21:23.062Z,28.69
2016-06-03T12:22:23.096Z,28.59
2016-06-03T12:23:23.146Z,28.5
2016-06-03T12:24:23.180Z,28.01
2016-06-03T12:25:23.213Z,28.11
2016-06-03T12:26:23.513Z,28.2
2016-06-03T12:27:23.281Z,28.11
2016-06-03T12:28:23.315Z,28.39
2016-06-03T12:29:23.349Z,28.01
2016-06-03T12:30:23.399Z,28.4
2016-06-03T12:31:23.417Z,28.29
2016-06-03T12:32:23.451Z,28.2
2016-06-03T12:33:23.485Z,27.7
2016-06-03T12:34:23.363Z,28
2016-06-03T12:35:23.569Z,28
2016-06-03T12:36:23.587Z,27.9
2016-06-03T12:37:23.636Z,28.29
2016-06-03T12:38:23.655Z,27.81
2016-06-03T12:39:23.705Z,27.9
2016-06-03T12:40:23.738Z,27.61
2016-06-03T12:41:23.881Z,27.4
2016-06-03T12:42:23.916Z,27.5
2016-06-03T12:43:23.841Z,27.5
2016-06-03T12:44:23.952Z,27.9
2016-06-03T12:45:23.955Z,28.29
2016-06-03T12:46:23.974Z,27.8
2016-06-03T12:47:23.976Z,27.4
2016-06-03T12:48:24.119Z,27.29
2016-06-03T12:49:24.138Z,27.39
2016-06-03T12:50:24.155Z,27.78
2016-06-03T12:51:24.174Z,27.88
2016-06-03T12:52:24.208Z,28.06
2016-06-03T12:53:24.210Z,27.97
2016-06-03T12:54:24.229Z,28.55
2016-06-03T12:55:24.262Z,29.03
2016-06-03T12:56:24.296Z,28.93
2016-06-03T12:57:24.331Z,29.32